<?xml version='1.0' encoding='UTF-8'?><gpx version="1.1" creator="JPX - https://github.com/jenetics/jpx" xmlns="http://www.topografix.com/GPX/1/1"><trk><trkseg><trkpt lat="41.97587995328193" lon="12.159684933733343"><ele>121.99999999999999</ele><time>2026-04-11T10:27:36Z</time></trkpt><trkpt lat="41.9759445259607" lon="12.159697199747326"><ele>122.0</ele><time>2026-04-11T10:27:39Z</time></trkpt><trkpt lat="41.97601136597896" lon="12.159716538413496"><ele>121.99999999999999</ele><time>2026-04-11T10:27:45Z</time></trkpt><trkpt lat="41.976087699807664" lon="12.159716127927688"><ele>121.99999999999999</ele><time>2026-04-11T10:27:52Z</time></trkpt><trkpt lat="41.976060434824355" lon="12.159821891827084"><ele>122.0</ele><time>2026-04-11T10:27:57Z</time></trkpt><trkpt lat="41.976013234163304" lon="12.159889705941383"><ele>121.99999999999999</ele><time>2026-04-11T10:28:06Z</time></trkpt><trkpt lat="41.9759694693124" lon="12.159970635088634"><ele>121.99999999999999</ele><time>2026-04-11T10:28:11Z</time></trkpt><trkpt lat="41.9759215648108" lon="12.16003764355353"><ele>122.85714285714283</ele><time>2026-04-11T10:28:17Z</time></trkpt><trkpt lat="41.97587443414535" lon="12.160119458946639"><ele>123.71428571428571</ele><time>2026-04-11T10:28:22Z</time></trkpt><trkpt lat="41.97583599662953" lon="12.160207694782315"><ele>124.57142857142856</ele><time>2026-04-11T10:28:28Z</time></trkpt><trkpt lat="41.97589137193915" lon="12.160256972169313"><ele>125.42857142857142</ele><time>2026-04-11T10:28:33Z</time></trkpt><trkpt lat="41.975917912790194" lon="12.160335833764433"><ele>126.28571428571428</ele><time>2026-04-11T10:28:38Z</time></trkpt><trkpt lat="41.975886895844035" lon="12.160427903171003"><ele>127.14285714285714</ele><time>2026-04-11T10:28:44Z</time></trkpt><trkpt lat="41.9758522042282" lon="12.160500944269712"><ele>128.0</ele><time>2026-04-11T10:28:50Z</time></trkpt><trkpt lat="41.97582655444437" lon="12.160595444818002"><ele>128.0</ele><time>2026-04-11T10:29:05Z</time></trkpt><trkpt lat="41.97581474620312" lon="12.160691187904204"><ele>127.99999999999999</ele><time>2026-04-11T10:29:12Z</time></trkpt><trkpt lat="41.97585076659479" lon="12.160767841231522"><ele>128.0</ele><time>2026-04-11T10:29:21Z</time></trkpt><trkpt lat="41.975918497505155" lon="12.160771604848211"><ele>128.0</ele><time>2026-04-11T10:29:26Z</time></trkpt><trkpt lat="41.97593511801416" lon="12.160687543511662"><ele>127.99999999999999</ele><time>2026-04-11T10:29:31Z</time></trkpt><trkpt lat="41.97594741603218" lon="12.160602718268157"><ele>128.0</ele><time>2026-04-11T10:29:35.999Z</time></trkpt><trkpt lat="41.97598350528933" lon="12.160528816256072"><ele>128.0</ele><time>2026-04-11T10:29:40.999Z</time></trkpt><trkpt lat="41.976020075908785" lon="12.160453587942737"><ele>128.14285714285714</ele><time>2026-04-11T10:29:46Z</time></trkpt><trkpt lat="41.97606493728622" lon="12.160388557145861"><ele>128.28571428571428</ele><time>2026-04-11T10:29:52Z</time></trkpt><trkpt lat="41.97608677013029" lon="12.160293779429441"><ele>128.42857142857142</ele><time>2026-04-11T10:30:20Z</time></trkpt><trkpt lat="41.97610723768779" lon="12.16021147577429"><ele>128.57142857142856</ele><time>2026-04-11T10:30:27Z</time></trkpt><trkpt lat="41.97612712877544" lon="12.160114897145569"><ele>128.71428571428572</ele><time>2026-04-11T10:30:33Z</time></trkpt><trkpt lat="41.97614049842929" lon="12.160025804556199"><ele>128.85714285714283</ele><time>2026-04-11T10:30:38Z</time></trkpt><trkpt lat="41.97615708328653" lon="12.159938637838572"><ele>129.0</ele><time>2026-04-11T10:30:43Z</time></trkpt><trkpt lat="41.97621889481956" lon="12.159895465245125"><ele>128.99999999999997</ele><time>2026-04-11T10:30:49Z</time></trkpt><trkpt lat="41.976269747059305" lon="12.159964884947492"><ele>129.0</ele><time>2026-04-11T10:30:54Z</time></trkpt><trkpt lat="41.97625733881017" lon="12.160058013898913"><ele>129.0</ele><time>2026-04-11T10:30:59Z</time></trkpt><trkpt lat="41.97622732553366" lon="12.160145280302071"><ele>129.0</ele><time>2026-04-11T10:31:05Z</time></trkpt><trkpt lat="41.97620457054863" lon="12.160233762024363"><ele>129.0</ele><time>2026-04-11T10:31:11Z</time></trkpt><trkpt lat="41.97622701314346" lon="12.160318307797075"><ele>128.99999999999997</ele><time>2026-04-11T10:31:18Z</time></trkpt><trkpt lat="41.9762904975598" lon="12.160310943850543"><ele>129.0</ele><time>2026-04-11T10:31:24Z</time></trkpt><trkpt lat="41.97633334356078" lon="12.160209802687014"><ele>128.99999999999997</ele><time>2026-04-11T10:31:31Z</time></trkpt><trkpt lat="41.976372074829825" lon="12.160132684844417"><ele>129.0</ele><time>2026-04-11T10:31:38Z</time></trkpt><trkpt lat="41.97640548055145" lon="12.160060140033748"><ele>129.0</ele><time>2026-04-11T10:31:43Z</time></trkpt><trkpt lat="41.976451493802074" lon="12.15997817962847"><ele>129.0</ele><time>2026-04-11T10:31:49Z</time></trkpt><trkpt lat="41.97651018455188" lon="12.159927351805234"><ele>129.0</ele><time>2026-04-11T10:31:55Z</time></trkpt><trkpt lat="41.976527476514775" lon="12.1600136018917"><ele>128.99999999999997</ele><time>2026-04-11T10:32:00Z</time></trkpt><trkpt lat="41.97649786766068" lon="12.160104091515594"><ele>129.0</ele><time>2026-04-11T10:32:05Z</time></trkpt><trkpt lat="41.9764706424497" lon="12.160191376036384"><ele>128.99999999999997</ele><time>2026-04-11T10:32:10Z</time></trkpt><trkpt lat="41.976437266982664" lon="12.160266042049873"><ele>129.0</ele><time>2026-04-11T10:32:15Z</time></trkpt><trkpt lat="41.97641489977478" lon="12.160346288696996"><ele>129.0</ele><time>2026-04-11T10:32:20Z</time></trkpt><trkpt lat="41.976385463823995" lon="12.160431303763758"><ele>129.0</ele><time>2026-04-11T10:32:26Z</time></trkpt><trkpt lat="41.976323037766456" lon="12.16046217096957"><ele>129.0</ele><time>2026-04-11T10:32:32Z</time></trkpt><trkpt lat="41.976261055304875" lon="12.160480411497261"><ele>128.99999999999997</ele><time>2026-04-11T10:32:38Z</time></trkpt><trkpt lat="41.976214046471526" lon="12.160542975573783"><ele>129.0</ele><time>2026-04-11T10:32:44Z</time></trkpt><trkpt lat="41.97619728260636" lon="12.160642821006565"><ele>129.7142857142857</ele><time>2026-04-11T10:33:04Z</time></trkpt><trkpt lat="41.976237253786884" lon="12.160719226631272"><ele>130.42857142857142</ele><time>2026-04-11T10:33:12Z</time></trkpt><trkpt lat="41.97629927138102" lon="12.16073947326443"><ele>131.14285714285714</ele><time>2026-04-11T10:33:17Z</time></trkpt><trkpt lat="41.97636661661531" lon="12.160765912620649"><ele>131.85714285714283</ele><time>2026-04-11T10:33:24Z</time></trkpt><trkpt lat="41.97641588732831" lon="12.160836452989875"><ele>132.57142857142856</ele><time>2026-04-11T10:33:30Z</time></trkpt><trkpt lat="41.97634633955776" lon="12.16083920220414"><ele>133.28571428571428</ele><time>2026-04-11T10:33:34Z</time></trkpt><trkpt lat="41.97627626109919" lon="12.160836633060008"><ele>134.0</ele><time>2026-04-11T10:33:40Z</time></trkpt><trkpt lat="41.97620661609301" lon="12.16080284157343"><ele>134.0</ele><time>2026-04-11T10:33:45Z</time></trkpt><trkpt lat="41.976148934396875" lon="12.16075045354355"><ele>134.0</ele><time>2026-04-11T10:33:50Z</time></trkpt><trkpt lat="41.976100074948135" lon="12.160693435999148"><ele>134.0</ele><time>2026-04-11T10:33:55Z</time></trkpt><trkpt lat="41.97605930252004" lon="12.16075966856631"><ele>134.0</ele><time>2026-04-11T10:33:59Z</time></trkpt><trkpt lat="41.97604040767038" lon="12.160851492103655"><ele>134.0</ele><time>2026-04-11T10:34:04Z</time></trkpt><trkpt lat="41.97605649432468" lon="12.160945175647319"><ele>134.0</ele><time>2026-04-11T10:34:09Z</time></trkpt><trkpt lat="41.9761138669108" lon="12.16099744293289"><ele>134.0</ele><time>2026-04-11T10:34:14Z</time></trkpt><trkpt lat="41.97617902889866" lon="12.161026732669946"><ele>134.0</ele><time>2026-04-11T10:34:19Z</time></trkpt><trkpt lat="41.97623781550821" lon="12.161075129910403"><ele>134.0</ele><time>2026-04-11T10:34:26Z</time></trkpt><trkpt lat="41.97626961306754" lon="12.161157357234028"><ele>134.0</ele><time>2026-04-11T10:34:33Z</time></trkpt><trkpt lat="41.97632431049207" lon="12.161220151940729"><ele>134.0</ele><time>2026-04-11T10:34:40Z</time></trkpt><trkpt lat="41.976382702995444" lon="12.16126245503143"><ele>134.0</ele><time>2026-04-11T10:34:45Z</time></trkpt><trkpt lat="41.976453344070876" lon="12.16123727988874"><ele>134.0</ele><time>2026-04-11T10:34:52Z</time></trkpt><trkpt lat="41.97647708278604" lon="12.161150769368675"><ele>134.0</ele><time>2026-04-11T10:34:57Z</time></trkpt><trkpt lat="41.97644203398149" lon="12.161065106097043"><ele>134.0</ele><time>2026-04-11T10:35:02Z</time></trkpt><trkpt lat="41.976380476514215" lon="12.161011633161293"><ele>134.0</ele><time>2026-04-11T10:35:07Z</time></trkpt><trkpt lat="41.97633788521482" lon="12.16094780335586"><ele>134.0</ele><time>2026-04-11T10:35:12Z</time></trkpt><trkpt lat="41.97641174749051" lon="12.160954901139645"><ele>134.0</ele><time>2026-04-11T10:35:28Z</time></trkpt><trkpt lat="41.97647884855067" lon="12.160971284552627"><ele>134.0</ele><time>2026-04-11T10:35:34Z</time></trkpt><trkpt lat="41.97654361439176" lon="12.160988547562914"><ele>134.0</ele><time>2026-04-11T10:35:41Z</time></trkpt><trkpt lat="41.97661468977535" lon="12.160984324509329"><ele>134.0</ele><time>2026-04-11T10:35:46Z</time></trkpt><trkpt lat="41.97663614089126" lon="12.160893588106665"><ele>134.0</ele><time>2026-04-11T10:35:51Z</time></trkpt><trkpt lat="41.97657058113557" lon="12.160890028527781"><ele>134.0</ele><time>2026-04-11T10:35:55Z</time></trkpt><trkpt lat="41.976515353356554" lon="12.16084394392096"><ele>134.0</ele><time>2026-04-11T10:36:00Z</time></trkpt><trkpt lat="41.976488335900825" lon="12.160757451759144"><ele>134.0</ele><time>2026-04-11T10:36:05Z</time></trkpt><trkpt lat="41.976462461499395" lon="12.160671456157795"><ele>134.0</ele><time>2026-04-11T10:36:14Z</time></trkpt><trkpt lat="41.97644949023162" lon="12.160583861627314"><ele>134.0</ele><time>2026-04-11T10:36:50Z</time></trkpt><trkpt lat="41.976459721662316" lon="12.16048798729626"><ele>134.0</ele><time>2026-04-11T10:36:57Z</time></trkpt><trkpt lat="41.97647718634906" lon="12.160393459508473"><ele>133.28571428571428</ele><time>2026-04-11T10:37:03Z</time></trkpt><trkpt lat="41.97650790767522" lon="12.160304977835779"><ele>132.57142857142856</ele><time>2026-04-11T10:37:09Z</time></trkpt><trkpt lat="41.97653671677082" lon="12.160221814434708"><ele>131.85714285714283</ele><time>2026-04-11T10:37:14Z</time></trkpt><trkpt lat="41.97658664202916" lon="12.160166098570366"><ele>131.14285714285714</ele><time>2026-04-11T10:37:19Z</time></trkpt><trkpt lat="41.976639438379884" lon="12.160222342459448"><ele>130.42857142857142</ele><time>2026-04-11T10:37:24Z</time></trkpt><trkpt lat="41.976639498335615" lon="12.160309154810365"><ele>129.7142857142857</ele><time>2026-04-11T10:37:29Z</time></trkpt><trkpt lat="41.976625879872046" lon="12.160405397782114"><ele>129.0</ele><time>2026-04-11T10:37:35Z</time></trkpt><trkpt lat="41.976607345815275" lon="12.1604973693227"><ele>128.99999999999997</ele><time>2026-04-11T10:37:41Z</time></trkpt><trkpt lat="41.976645518799515" lon="12.160575146495054"><ele>129.0</ele><time>2026-04-11T10:37:47Z</time></trkpt><trkpt lat="41.97670712240313" lon="12.160523605460419"><ele>129.0</ele><time>2026-04-11T10:37:52Z</time></trkpt><trkpt lat="41.97674107219094" lon="12.160445667422454"><ele>129.0</ele><time>2026-04-11T10:37:57Z</time></trkpt><trkpt lat="41.97675106778801" lon="12.160359216992829"><ele>129.0</ele><time>2026-04-11T10:38:02Z</time></trkpt><trkpt lat="41.976762982035346" lon="12.160272869814538"><ele>128.99999999999997</ele><time>2026-04-11T10:38:07Z</time></trkpt><trkpt lat="41.9767713212195" lon="12.160178092798507"><ele>129.0</ele><time>2026-04-11T10:38:13Z</time></trkpt><trkpt lat="41.97678375010738" lon="12.160080699194348"><ele>128.57142857142856</ele><time>2026-04-11T10:38:19Z</time></trkpt><trkpt lat="41.97681907631674" lon="12.16000557384252"><ele>128.14285714285714</ele><time>2026-04-11T10:38:26Z</time></trkpt><trkpt lat="41.97687779897522" lon="12.159959033280929"><ele>127.71428571428571</ele><time>2026-04-11T10:38:32Z</time></trkpt><trkpt lat="41.976950525896875" lon="12.159961389858038"><ele>127.28571428571428</ele><time>2026-04-11T10:38:38Z</time></trkpt><trkpt lat="41.97701767873533" lon="12.159985881722152"><ele>126.85714285714286</ele><time>2026-04-11T10:38:44Z</time></trkpt><trkpt lat="41.97707676117461" lon="12.160032937096883"><ele>126.42857142857143</ele><time>2026-04-11T10:38:50Z</time></trkpt><trkpt lat="41.97709763902318" lon="12.160123848536626"><ele>126.0</ele><time>2026-04-11T10:38:56Z</time></trkpt><trkpt lat="41.977100560637155" lon="12.160216003436972"><ele>126.0</ele><time>2026-04-11T10:39:02Z</time></trkpt><trkpt lat="41.977033592636374" lon="12.160251490900139"><ele>126.0</ele><time>2026-04-11T10:39:08Z</time></trkpt><trkpt lat="41.976970502546365" lon="12.160268616922652"><ele>126.0</ele><time>2026-04-11T10:39:14Z</time></trkpt><trkpt lat="41.97690454087274" lon="12.16029825524218"><ele>126.0</ele><time>2026-04-11T10:39:20Z</time></trkpt><trkpt lat="41.976850485862684" lon="12.160358242794036"><ele>126.0</ele><time>2026-04-11T10:39:26Z</time></trkpt><trkpt lat="41.9768317474041" lon="12.16044975508473"><ele>126.0</ele><time>2026-04-11T10:39:32Z</time></trkpt><trkpt lat="41.97679431728571" lon="12.16053276871043"><ele>126.0</ele><time>2026-04-11T10:39:38Z</time></trkpt><trkpt lat="41.97677122472977" lon="12.16061570885844"><ele>126.85714285714286</ele><time>2026-04-11T10:39:44Z</time></trkpt><trkpt lat="41.976750626648986" lon="12.160707176958189"><ele>127.71428571428572</ele><time>2026-04-11T10:39:50Z</time></trkpt><trkpt lat="41.976737387235254" lon="12.160801843112507"><ele>128.57142857142856</ele><time>2026-04-11T10:39:56Z</time></trkpt><trkpt lat="41.97674944789342" lon="12.160891985712324"><ele>129.42857142857144</ele><time>2026-04-11T10:40:02Z</time></trkpt><trkpt lat="41.9767634262691" lon="12.160975709416844"><ele>130.28571428571428</ele><time>2026-04-11T10:40:08Z</time></trkpt><trkpt lat="41.97682993516632" lon="12.160916089182393"><ele>131.14285714285714</ele><time>2026-04-11T10:41:02Z</time></trkpt><trkpt lat="41.97687139944388" lon="12.16082493142261"><ele>132.0</ele><time>2026-04-11T10:41:10Z</time></trkpt><trkpt lat="41.97689074986306" lon="12.160739764128817"><ele>131.14285714285714</ele><time>2026-04-11T10:41:16Z</time></trkpt><trkpt lat="41.976925495005936" lon="12.160667305338764"><ele>130.28571428571428</ele><time>2026-04-11T10:41:21Z</time></trkpt><trkpt lat="41.97696191007785" lon="12.16058748472276"><ele>129.42857142857144</ele><time>2026-04-11T10:41:26Z</time></trkpt><trkpt lat="41.9769772622274" lon="12.16049947195603"><ele>128.57142857142856</ele><time>2026-04-11T10:41:31Z</time></trkpt><trkpt lat="41.97701857795035" lon="12.160431792604498"><ele>127.71428571428572</ele><time>2026-04-11T10:41:36Z</time></trkpt><trkpt lat="41.97707511108767" lon="12.160376928219728"><ele>126.85714285714286</ele><time>2026-04-11T10:41:41Z</time></trkpt><trkpt lat="41.97713483372341" lon="12.160339820818207"><ele>126.0</ele><time>2026-04-11T10:41:46Z</time></trkpt><trkpt lat="41.977196562263956" lon="12.160312996656703"><ele>126.0</ele><time>2026-04-11T10:41:51Z</time></trkpt><trkpt lat="41.97724578109511" lon="12.160251650069391"><ele>126.0</ele><time>2026-04-11T10:42:02Z</time></trkpt><trkpt lat="41.97729849958661" lon="12.160316102062245"><ele>126.0</ele><time>2026-04-11T10:42:07Z</time></trkpt><trkpt lat="41.977353849522345" lon="12.160366560689637"><ele>126.0</ele><time>2026-04-11T10:42:13Z</time></trkpt><trkpt lat="41.9774161660048" lon="12.160393173330561"><ele>126.0</ele><time>2026-04-11T10:42:19Z</time></trkpt><trkpt lat="41.97748546526061" lon="12.160427759596907"><ele>126.0</ele><time>2026-04-11T10:42:25Z</time></trkpt><trkpt lat="41.9774664309742" lon="12.160519337416936"><ele>126.0</ele><time>2026-04-11T10:42:31Z</time></trkpt><trkpt lat="41.97739961593341" lon="12.160499911982681"><ele>126.0</ele><time>2026-04-11T10:42:35Z</time></trkpt><trkpt lat="41.97732694107434" lon="12.160484543019322"><ele>126.0</ele><time>2026-04-11T10:42:40Z</time></trkpt><trkpt lat="41.97725293208966" lon="12.16048026990775"><ele>126.0</ele><time>2026-04-11T10:42:46Z</time></trkpt><trkpt lat="41.977184945373274" lon="12.160517378950901"><ele>126.0</ele><time>2026-04-11T10:42:52Z</time></trkpt><trkpt lat="41.977194977432276" lon="12.160614331754587"><ele>126.0</ele><time>2026-04-11T10:42:57Z</time></trkpt><trkpt lat="41.977240635765384" lon="12.160673175892935"><ele>126.0</ele><time>2026-04-11T10:43:01Z</time></trkpt><trkpt lat="41.97731650232277" lon="12.160672208891219"><ele>126.0</ele><time>2026-04-11T10:43:06Z</time></trkpt><trkpt lat="41.97738753087885" lon="12.160672152859153"><ele>126.0</ele><time>2026-04-11T10:43:11Z</time></trkpt><trkpt lat="41.977451478989046" lon="12.160668350490708"><ele>126.0</ele><time>2026-04-11T10:43:16Z</time></trkpt><trkpt lat="41.97751434343091" lon="12.16068632297333"><ele>126.0</ele><time>2026-04-11T10:43:22Z</time></trkpt><trkpt lat="41.97757000592354" lon="12.160630655878215"><ele>126.0</ele><time>2026-04-11T10:43:28Z</time></trkpt><trkpt lat="41.977596861955305" lon="12.16054721752077"><ele>126.0</ele><time>2026-04-11T10:43:33Z</time></trkpt><trkpt lat="41.97760051227314" lon="12.160459140879087"><ele>126.0</ele><time>2026-04-11T10:43:40Z</time></trkpt><trkpt lat="41.97758308738" lon="12.160370422866702"><ele>126.0</ele><time>2026-04-11T10:43:47Z</time></trkpt><trkpt lat="41.97760373216451" lon="12.160277253171088"><ele>126.42857142857143</ele><time>2026-04-11T10:43:54Z</time></trkpt><trkpt lat="41.977649840911745" lon="12.160211094598099"><ele>126.85714285714286</ele><time>2026-04-11T10:43:59Z</time></trkpt><trkpt lat="41.977720015634695" lon="12.160208484479758"><ele>127.28571428571428</ele><time>2026-04-11T10:44:05Z</time></trkpt><trkpt lat="41.97776599034952" lon="12.160268601363535"><ele>127.71428571428571</ele><time>2026-04-11T10:44:13Z</time></trkpt><trkpt lat="41.977810097318674" lon="12.160358366689007"><ele>128.14285714285714</ele><time>2026-04-11T10:44:18Z</time></trkpt><trkpt lat="41.977802053363" lon="12.160450151572325"><ele>128.57142857142856</ele><time>2026-04-11T10:44:27Z</time></trkpt><trkpt lat="41.977765853430405" lon="12.160535856329401"><ele>129.0</ele><time>2026-04-11T10:44:34Z</time></trkpt><trkpt lat="41.977734418575544" lon="12.160614914710242"><ele>128.99999999999997</ele><time>2026-04-11T10:44:40Z</time></trkpt><trkpt lat="41.97769376349446" lon="12.160687310644478"><ele>129.0</ele><time>2026-04-11T10:44:46Z</time></trkpt><trkpt lat="41.97762525040522" lon="12.160726179340926"><ele>129.0</ele><time>2026-04-11T10:44:52Z</time></trkpt><trkpt lat="41.97755209492294" lon="12.160749141514614"><ele>129.0</ele><time>2026-04-11T10:44:58Z</time></trkpt><trkpt lat="41.97748551417273" lon="12.16078356365657"><ele>129.0</ele><time>2026-04-11T10:45:04Z</time></trkpt><trkpt lat="41.977426862632846" lon="12.160820231470948"><ele>128.99999999999997</ele><time>2026-04-11T10:45:10Z</time></trkpt><trkpt lat="41.97740715058851" lon="12.16090525634092"><ele>129.0</ele><time>2026-04-11T10:45:17Z</time></trkpt><trkpt lat="41.97740151100614" lon="12.161015881258475"><ele>129.42857142857142</ele><time>2026-04-11T10:45:24Z</time></trkpt><trkpt lat="41.97743342654365" lon="12.161089611291075"><ele>129.85714285714286</ele><time>2026-04-11T10:45:30Z</time></trkpt><trkpt lat="41.97748319087866" lon="12.161147169124549"><ele>130.28571428571428</ele><time>2026-04-11T10:45:36Z</time></trkpt><trkpt lat="41.977528529417846" lon="12.161210675638277"><ele>130.71428571428572</ele><time>2026-04-11T10:45:42Z</time></trkpt><trkpt lat="41.97754045077473" lon="12.161294453922693"><ele>131.14285714285714</ele><time>2026-04-11T10:45:53.999Z</time></trkpt><trkpt lat="41.97753316467692" lon="12.161391876717088"><ele>131.57142857142856</ele><time>2026-04-11T10:45:59.999Z</time></trkpt><trkpt lat="41.97752169488129" lon="12.161477225256075"><ele>132.0</ele><time>2026-04-11T10:46:05.999Z</time></trkpt><trkpt lat="41.97749466089808" lon="12.161558297261633"><ele>132.0</ele><time>2026-04-11T10:46:11.999Z</time></trkpt><trkpt lat="41.9774475104778" lon="12.161623811121217"><ele>132.0</ele><time>2026-04-11T10:46:17.999Z</time></trkpt><trkpt lat="41.97740012499101" lon="12.161561264474427"><ele>132.0</ele><time>2026-04-11T10:46:27Z</time></trkpt><trkpt lat="41.9774180847889" lon="12.16147424140545"><ele>132.0</ele><time>2026-04-11T10:46:32Z</time></trkpt><trkpt lat="41.97744031924295" lon="12.16139324663719"><ele>132.0</ele><time>2026-04-11T10:46:37Z</time></trkpt><trkpt lat="41.97739477210995" lon="12.161317886304158"><ele>132.0</ele><time>2026-04-11T10:46:42Z</time></trkpt><trkpt lat="41.97732599646013" lon="12.16132663433089"><ele>132.0</ele><time>2026-04-11T10:46:47Z</time></trkpt><trkpt lat="41.9772904873147" lon="12.161407630292773"><ele>132.0</ele><time>2026-04-11T10:46:52Z</time></trkpt><trkpt lat="41.97726986293211" lon="12.161503152184471"><ele>132.0</ele><time>2026-04-11T10:46:58Z</time></trkpt><trkpt lat="41.97724829024572" lon="12.161595861779706"><ele>132.0</ele><time>2026-04-11T10:47:06Z</time></trkpt><trkpt lat="41.97725985254035" lon="12.16168033481257"><ele>132.0</ele><time>2026-04-11T10:47:11Z</time></trkpt><trkpt lat="41.97728157313312" lon="12.161760743222086"><ele>132.0</ele><time>2026-04-11T10:47:16Z</time></trkpt><trkpt lat="41.97731745409846" lon="12.16184128587877"><ele>132.0</ele><time>2026-04-11T10:47:22Z</time></trkpt><trkpt lat="41.97734560557134" lon="12.161924718100783"><ele>132.0</ele><time>2026-04-11T10:47:29Z</time></trkpt><trkpt lat="41.97735894858167" lon="12.162019561694352"><ele>132.71428571428572</ele><time>2026-04-11T10:47:36Z</time></trkpt><trkpt lat="41.977319117268465" lon="12.162100925350352"><ele>133.42857142857144</ele><time>2026-04-11T10:47:43Z</time></trkpt><trkpt lat="41.97730090438494" lon="12.162196218264722"><ele>134.14285714285717</ele><time>2026-04-11T10:47:49Z</time></trkpt><trkpt lat="41.977277704288326" lon="12.162290097515026"><ele>134.85714285714286</ele><time>2026-04-11T10:47:56Z</time></trkpt><trkpt lat="41.97724452960212" lon="12.162366540965863"><ele>135.57142857142858</ele><time>2026-04-11T10:48:02Z</time></trkpt><trkpt lat="41.97721633004122" lon="12.162448661699111"><ele>136.2857142857143</ele><time>2026-04-11T10:48:08Z</time></trkpt><trkpt lat="41.97718233904602" lon="12.162531801770069"><ele>137.0</ele><time>2026-04-11T10:48:13Z</time></trkpt><trkpt lat="41.97710944266827" lon="12.162553334092669"><ele>137.00000000000003</ele><time>2026-04-11T10:48:18Z</time></trkpt><trkpt lat="41.9770433115256" lon="12.162570240433393"><ele>137.0</ele><time>2026-04-11T10:48:22.999Z</time></trkpt><trkpt lat="41.97696999128054" lon="12.162562951548606"><ele>137.0</ele><time>2026-04-11T10:48:27.999Z</time></trkpt><trkpt lat="41.97691133441476" lon="12.162503695511905"><ele>137.0</ele><time>2026-04-11T10:48:33Z</time></trkpt><trkpt lat="41.97687113726382" lon="12.162423610406695"><ele>137.0</ele><time>2026-04-11T10:48:38Z</time></trkpt><trkpt lat="41.976867025586245" lon="12.162334122173322"><ele>137.00000000000003</ele><time>2026-04-11T10:48:43Z</time></trkpt><trkpt lat="41.97692713659788" lon="12.162282288041204"><ele>137.0</ele><time>2026-04-11T10:48:48Z</time></trkpt><trkpt lat="41.97696261182026" lon="12.162201277856667"><ele>137.00000000000003</ele><time>2026-04-11T10:48:54Z</time></trkpt><trkpt lat="41.9770262693832" lon="12.162191398801319"><ele>137.0</ele><time>2026-04-11T10:48:58Z</time></trkpt><trkpt lat="41.97709540538583" lon="12.162169449455824"><ele>137.0</ele><time>2026-04-11T10:49:03Z</time></trkpt><trkpt lat="41.977162016624796" lon="12.162132546178682"><ele>137.0</ele><time>2026-04-11T10:49:09Z</time></trkpt><trkpt lat="41.97721262060578" lon="12.162064274261743"><ele>137.0</ele><time>2026-04-11T10:49:15Z</time></trkpt><trkpt lat="41.977227688234805" lon="12.161981089687435"><ele>137.00000000000003</ele><time>2026-04-11T10:49:20Z</time></trkpt><trkpt lat="41.97719775104955" lon="12.161885900532935"><ele>137.0</ele><time>2026-04-11T10:49:25Z</time></trkpt><trkpt lat="41.977149463824254" lon="12.161813021999597"><ele>137.00000000000003</ele><time>2026-04-11T10:49:30Z</time></trkpt><trkpt lat="41.97710509343541" lon="12.161744482929768"><ele>137.0</ele><time>2026-04-11T10:49:35Z</time></trkpt><trkpt lat="41.97707998096678" lon="12.16166608989651"><ele>137.0</ele><time>2026-04-11T10:49:40Z</time></trkpt><trkpt lat="41.97708744031795" lon="12.161574999044502"><ele>137.0</ele><time>2026-04-11T10:49:46Z</time></trkpt><trkpt lat="41.977118973455774" lon="12.161492446653991"><ele>137.0</ele><time>2026-04-11T10:49:52Z</time></trkpt><trkpt lat="41.97714309410252" lon="12.161401250573704"><ele>137.00000000000003</ele><time>2026-04-11T10:49:58Z</time></trkpt><trkpt lat="41.97716558586106" lon="12.16132039752297"><ele>137.0</ele><time>2026-04-11T10:50:05Z</time></trkpt><trkpt lat="41.977192202369" lon="12.16122888045485"><ele>136.2857142857143</ele><time>2026-04-11T10:50:12Z</time></trkpt><trkpt lat="41.977213957513584" lon="12.161134461667814"><ele>135.57142857142858</ele><time>2026-04-11T10:50:18Z</time></trkpt><trkpt lat="41.97723251001499" lon="12.16105001071892"><ele>134.85714285714286</ele><time>2026-04-11T10:50:23.999Z</time></trkpt><trkpt lat="41.97724841880705" lon="12.160966503610403"><ele>134.14285714285717</ele><time>2026-04-11T10:50:29.999Z</time></trkpt><trkpt lat="41.97724489276806" lon="12.160874531369856"><ele>133.42857142857144</ele><time>2026-04-11T10:50:36.999Z</time></trkpt><trkpt lat="41.977214816711836" lon="12.160795163571661"><ele>132.71428571428572</ele><time>2026-04-11T10:50:42.999Z</time></trkpt><trkpt lat="41.97715416860326" lon="12.160754952508212"><ele>132.0</ele><time>2026-04-11T10:50:49.999Z</time></trkpt><trkpt lat="41.97709552460333" lon="12.160804110897276"><ele>132.0</ele><time>2026-04-11T10:50:57.999Z</time></trkpt><trkpt lat="41.97704652490435" lon="12.16087257059751"><ele>132.0</ele><time>2026-04-11T10:51:04.999Z</time></trkpt><trkpt lat="41.9770082495844" lon="12.160948431531041"><ele>132.0</ele><time>2026-04-11T10:51:10.999Z</time></trkpt><trkpt lat="41.97697357714308" lon="12.161034913075868"><ele>132.0</ele><time>2026-04-11T10:51:16.999Z</time></trkpt><trkpt lat="41.97695136319432" lon="12.161122867664465"><ele>132.0</ele><time>2026-04-11T10:51:23.999Z</time></trkpt><trkpt lat="41.97692927180543" lon="12.16120297382643"><ele>132.0</ele><time>2026-04-11T10:51:29.999Z</time></trkpt><trkpt lat="41.97690668167939" lon="12.161307231536345"><ele>132.0</ele><time>2026-04-11T10:51:36.999Z</time></trkpt><trkpt lat="41.976876626890615" lon="12.161386082576831"><ele>132.0</ele><time>2026-04-11T10:51:43.999Z</time></trkpt><trkpt lat="41.97686453315206" lon="12.161469738545948"><ele>132.0</ele><time>2026-04-11T10:51:48.999Z</time></trkpt><trkpt lat="41.976835701609986" lon="12.161565893940695"><ele>132.0</ele><time>2026-04-11T10:51:54.999Z</time></trkpt><trkpt lat="41.976786071823135" lon="12.161623992161676"><ele>132.0</ele><time>2026-04-11T10:51:59.999Z</time></trkpt><trkpt lat="41.97673301958538" lon="12.16168014047253"><ele>132.0</ele><time>2026-04-11T10:52:03.999Z</time></trkpt><trkpt lat="41.9766620569163" lon="12.16166702479091"><ele>132.0</ele><time>2026-04-11T10:52:08.999Z</time></trkpt><trkpt lat="41.976593298359745" lon="12.1616488383113"><ele>132.0</ele><time>2026-04-11T10:52:13.999Z</time></trkpt><trkpt lat="41.97653651598244" lon="12.161598952553529"><ele>132.28571428571428</ele><time>2026-04-11T10:52:18.999Z</time></trkpt><trkpt lat="41.97647543883945" lon="12.161555866937642"><ele>132.57142857142858</ele><time>2026-04-11T10:52:23.999Z</time></trkpt><trkpt lat="41.976418119823705" lon="12.161512778757475"><ele>132.85714285714286</ele><time>2026-04-11T10:52:28.999Z</time></trkpt><trkpt lat="41.976354454117356" lon="12.161494530413096"><ele>133.14285714285714</ele><time>2026-04-11T10:52:33.999Z</time></trkpt><trkpt lat="41.9762879965853" lon="12.161480063771506"><ele>133.42857142857142</ele><time>2026-04-11T10:52:38.999Z</time></trkpt><trkpt lat="41.97621926441056" lon="12.161441901726715"><ele>133.71428571428572</ele><time>2026-04-11T10:52:44.998Z</time></trkpt><trkpt lat="41.97618361644737" lon="12.16136010238904"><ele>134.0</ele><time>2026-04-11T10:52:51.999Z</time></trkpt><trkpt lat="41.976260751584945" lon="12.16137259194225"><ele>134.0</ele><time>2026-04-11T10:52:55.999Z</time></trkpt><trkpt lat="41.97632052947043" lon="12.161333863482582"><ele>134.0</ele><time>2026-04-11T10:53:00.999Z</time></trkpt><trkpt lat="41.97626497564496" lon="12.161283574167737"><ele>134.0</ele><time>2026-04-11T10:53:59Z</time></trkpt><trkpt lat="41.97619899760843" lon="12.161260056384481"><ele>134.0</ele><time>2026-04-11T10:54:05Z</time></trkpt><trkpt lat="41.97613557506374" lon="12.161226712677461"><ele>134.0</ele><time>2026-04-11T10:54:10Z</time></trkpt><trkpt lat="41.97606737739964" lon="12.161196525261762"><ele>134.0</ele><time>2026-04-11T10:54:16Z</time></trkpt><trkpt lat="41.97599371233296" lon="12.161160699850623"><ele>134.0</ele><time>2026-04-11T10:54:22Z</time></trkpt><trkpt lat="41.97591829787421" lon="12.161144462129208"><ele>133.71428571428572</ele><time>2026-04-11T10:54:27Z</time></trkpt><trkpt lat="41.97584189082245" lon="12.161124340373858"><ele>133.42857142857142</ele><time>2026-04-11T10:54:33Z</time></trkpt><trkpt lat="41.975781547691284" lon="12.161072979849969"><ele>133.14285714285714</ele><time>2026-04-11T10:54:39Z</time></trkpt><trkpt lat="41.97572016128279" lon="12.161053671939133"><ele>132.85714285714286</ele><time>2026-04-11T10:54:45Z</time></trkpt><trkpt lat="41.9756542573082" lon="12.161019532568416"><ele>132.57142857142858</ele><time>2026-04-11T10:54:51Z</time></trkpt><trkpt lat="41.975621579535634" lon="12.160938958990583"><ele>132.28571428571428</ele><time>2026-04-11T10:54:58Z</time></trkpt><trkpt lat="41.97569790333302" lon="12.16096247821586"><ele>132.0</ele><time>2026-04-11T10:55:02Z</time></trkpt><trkpt lat="41.97577122209325" lon="12.160987946517713"><ele>132.0</ele><time>2026-04-11T10:55:07Z</time></trkpt><trkpt lat="41.97582743505987" lon="12.161029097762277"><ele>132.0</ele><time>2026-04-11T10:55:13Z</time></trkpt><trkpt lat="41.975897093918455" lon="12.161043565507452"><ele>132.0</ele><time>2026-04-11T10:55:21Z</time></trkpt><trkpt lat="41.97590529540406" lon="12.16095288049806"><ele>132.0</ele><time>2026-04-11T10:55:28Z</time></trkpt><trkpt lat="41.97584225586273" lon="12.16090282755503"><ele>132.0</ele><time>2026-04-11T10:55:34Z</time></trkpt><trkpt lat="41.97577638607959" lon="12.160883949154435"><ele>132.0</ele><time>2026-04-11T10:55:39Z</time></trkpt><trkpt lat="41.97571212447257" lon="12.16084790839623"><ele>132.0</ele><time>2026-04-11T10:55:44Z</time></trkpt><trkpt lat="41.975654034866295" lon="12.160806566978117"><ele>132.0</ele><time>2026-04-11T10:55:49Z</time></trkpt><trkpt lat="41.97558125139202" lon="12.16080885269492"><ele>132.0</ele><time>2026-04-11T10:55:54Z</time></trkpt><trkpt lat="41.9755130003148" lon="12.160843119172657"><ele>132.0</ele><time>2026-04-11T10:55:59Z</time></trkpt><trkpt lat="41.97543860431927" lon="12.160835254034202"><ele>132.0</ele><time>2026-04-11T10:56:05Z</time></trkpt><trkpt lat="41.97538498749527" lon="12.160775580808172"><ele>132.0</ele><time>2026-04-11T10:56:11Z</time></trkpt><trkpt lat="41.9754187527895" lon="12.16068983062933"><ele>132.0</ele><time>2026-04-11T10:56:16Z</time></trkpt><trkpt lat="41.97548477495233" lon="12.160650664186061"><ele>132.0</ele><time>2026-04-11T10:56:21Z</time></trkpt><trkpt lat="41.97555385428638" lon="12.160665472890063"><ele>132.0</ele><time>2026-04-11T10:56:26Z</time></trkpt><trkpt lat="41.97561794382944" lon="12.160689815591823"><ele>132.0</ele><time>2026-04-11T10:56:31Z</time></trkpt><trkpt lat="41.975680158108304" lon="12.16071852438617"><ele>132.0</ele><time>2026-04-11T10:56:36Z</time></trkpt><trkpt lat="41.97574246102521" lon="12.160697185774875"><ele>132.0</ele><time>2026-04-11T10:56:41Z</time></trkpt><trkpt lat="41.97574456012113" lon="12.160597365816797"><ele>132.0</ele><time>2026-04-11T10:56:46Z</time></trkpt><trkpt lat="41.975696289085995" lon="12.160537867091994"><ele>132.0</ele><time>2026-04-11T10:56:51Z</time></trkpt><trkpt lat="41.97563244225284" lon="12.16055024190587"><ele>132.0</ele><time>2026-04-11T10:56:55Z</time></trkpt><trkpt lat="41.97556457752248" lon="12.160553832901678"><ele>128.0</ele><time>2026-04-11T10:57:00Z</time></trkpt><trkpt lat="41.975506160337304" lon="12.160514992061612"><ele>128.0</ele><time>2026-04-11T10:57:05Z</time></trkpt><trkpt lat="41.975528337887646" lon="12.160431458733587"><ele>128.0</ele><time>2026-04-11T10:57:09Z</time></trkpt></trkseg></trk></gpx>